N83 weather

Ds Butler Farm and Airfield
Oak Ridge, North Carolina, United States

Public forecast

Using degrees Fahrenheit for public forecast. Weather courtesy of forecast.io.

METAR (pilot weather report)

Closest report is Piedmont Triad International Airport, 6.7 nm (12.4 km) SSE. Retrieved 2019/07/24 06:54 UTC (50 minutes ago):

KGSO 240654Z 33004KT 10SM BKN250 18/18 A2993 RMK AO2 SLP129 T01830178 $

TAF (pilot weather forecast)

Closest forecast is Piedmont Triad International Airport, 6.7 nm (12.4 km) SSE. Retrieved 2019/07/24 06:28 UTC (1 hour ago):

TAF KGSO 240526Z 2406/2506 02006KT P6SM FEW025 BKN250 TEMPO 2406/2409 2SM BR OVC015 FM241300 03009KT P6SM SCT050 FM242300 04004KT P6SM SKC